Time;durP1;ratioP1;P1;durP2;ratioP2;P2;SDS_P1;SDS_P2;PMS_P1;PMS_P2;Temp;Humidity;BMP_temperature;BMP_pressure;BME280_temperature;BME280_humidity;BME280_pressure;Samples;Min_cycle;Max_cycle;Signal;HPM_P1;HPM_P2
2022/03/28 00:00:19;;;;;;;7.90;5.83;;;11.00;68.70;;;14.08;51.96;102746.28;4996805;28;20206;-51
2022/03/28 00:02:47;;;;;;;10.80;5.93;;;10.90;69.10;;;14.04;52.32;102755.50;4996887;28;20188;-52
2022/03/28 00:05:14;;;;;;;8.20;5.37;;;10.80;69.80;;;14.00;52.53;102748.84;4996806;28;20575;-50
2022/03/28 00:07:43;;;;;;;8.23;5.77;;;10.80;69.90;;;13.96;52.59;102743.00;5015538;28;20222;-50
2022/03/28 00:10:13;;;;;;;8.70;6.07;;;10.70;70.20;;;13.95;52.77;102743.16;5016435;28;20637;-50
2022/03/28 00:12:41;;;;;;;7.03;5.07;;;10.70;70.40;;;13.92;52.95;102741.63;5016348;28;20253;-49
2022/03/28 00:15:09;;;;;;;6.80;4.83;;;10.70;70.40;;;13.91;52.98;102736.47;5016327;28;20200;-50
2022/03/28 00:17:38;;;;;;;11.80;6.40;;;10.70;70.40;;;13.92;53.06;102740.78;5015897;28;20636;-53
2022/03/28 00:20:12;;;;;;;11.47;6.50;;;10.60;70.30;;;13.87;52.74;102737.75;5016441;28;20585;-50
2022/03/28 00:22:41;;;;;;;8.33;5.73;;;10.60;70.30;;;13.80;52.48;102728.72;5014455;28;20187;-51
2022/03/28 00:25:11;;;;;;;7.80;5.50;;;10.50;70.50;;;13.72;53.10;102729.47;5015469;28;20191;-51
2022/03/28 00:27:39;;;;;;;7.40;5.17;;;10.50;70.40;;;13.66;53.20;102724.75;5015711;28;20219;-51
2022/03/28 00:30:08;;;;;;;8.40;5.53;;;10.40;70.50;;;13.64;53.26;102731.19;5015911;28;20262;-52
2022/03/28 00:32:37;;;;;;;7.00;4.83;;;10.40;70.60;;;13.62;53.13;102733.13;5015611;28;20246;-48
2022/03/28 00:35:06;;;;;;;9.33;5.70;;;10.40;70.50;;;13.61;53.05;102731.47;5016173;28;20187;-49
2022/03/28 00:37:36;;;;;;;10.47;7.23;;;10.40;70.20;;;13.64;53.38;102728.53;5015380;28;20222;-51
2022/03/28 00:40:05;;;;;;;10.03;6.50;;;10.40;70.60;;;13.70;53.18;102725.28;5014885;28;20199;-49
2022/03/28 00:42:32;;;;;;;10.80;7.03;;;10.50;70.40;;;13.77;53.32;102727.22;5014600;28;20188;-51
2022/03/28 00:44:59;;;;;;;8.60;6.07;;;10.50;70.50;;;13.82;53.31;102719.66;5015592;28;20199;-51
2022/03/28 00:47:27;;;;;;;8.60;6.47;;;10.60;70.70;;;13.88;53.00;102723.56;5015096;28;20238;-51
2022/03/28 00:49:55;;;;;;;8.70;6.53;;;10.60;70.70;;;13.93;52.77;102726.59;5015721;28;20638;-50
2022/03/28 00:52:23;;;;;;;8.13;6.00;;;10.60;70.70;;;13.92;53.02;102723.09;5015077;28;20285;-49
2022/03/28 00:54:50;;;;;;;10.47;7.30;;;10.70;70.40;;;13.91;52.81;102717.94;5015295;28;20196;-51
2022/03/28 00:57:18;;;;;;;9.33;6.67;;;10.70;70.60;;;13.91;52.89;102712.66;4998652;28;20219;-51
2022/03/28 00:59:45;;;;;;;7.80;6.30;;;10.70;70.50;;;13.90;53.03;102721.59;4995635;28;20219;-50
2022/03/28 01:02:13;;;;;;;9.57;6.93;;;10.70;70.60;;;13.89;52.71;102707.50;4995640;28;20191;-50
2022/03/28 01:04:41;;;;;;;10.43;7.57;;;10.70;70.50;;;13.89;52.71;102709.31;4995810;28;20192;-49
2022/03/28 01:07:10;;;;;;;11.47;8.53;;;10.70;70.40;;;13.89;53.11;102704.88;4995354;28;20639;-49
2022/03/28 01:09:37;;;;;;;10.00;7.20;;;10.60;70.60;;;13.89;53.17;102693.44;4995443;28;20545;-48
2022/03/28 01:12:07;;;;;;;7.77;5.97;;;10.60;71.00;;;13.89;53.07;102688.97;4996860;28;20207;-50
2022/03/28 01:14:35;;;;;;;8.30;6.43;;;10.60;70.50;;;13.87;52.98;102690.09;5015102;28;20591;-50
2022/03/28 01:19:53;;;;;;;8.67;6.37;;;10.60;71.20;;;13.84;53.17;102677.16;5014909;28;20191;-48
2022/03/28 01:22:21;;;;;;;8.83;6.87;;;10.60;70.40;;;13.84;53.19;102667.41;5015759;28;20188;-50
2022/03/28 01:24:49;;;;;;;9.13;6.33;;;10.70;70.70;;;13.90;53.45;102666.84;5018745;28;20662;-50
2022/03/28 01:27:18;;;;;;;9.10;6.90;;;10.70;70.80;;;13.99;53.29;102657.16;5015671;28;20215;-50
2022/03/28 01:29:46;;;;;;;10.43;7.87;;;10.80;70.70;;;14.08;53.36;102665.03;5007214;28;20196;-50
2022/03/28 01:32:13;;;;;;;10.03;8.23;;;10.90;70.60;;;14.14;52.98;102658.31;5011975;28;20223;-50
2022/03/28 01:34:40;;;;;;;10.90;8.43;;;10.90;70.10;;;14.16;52.83;102656.34;5019016;28;20191;-50
2022/03/28 01:37:10;;;;;;;11.60;9.23;;;11.00;70.00;;;14.17;52.81;102647.41;5016804;28;20215;-51
2022/03/28 01:39:39;;;;;;;10.80;8.13;;;11.00;70.00;;;14.19;52.72;102645.47;5016727;28;20207;-50
2022/03/28 01:42:07;;;;;;;10.27;7.60;;;11.00;69.90;;;14.21;52.66;102646.13;5015844;28;20187;-50
2022/03/28 01:44:34;;;;;;;10.83;8.40;;;11.00;69.70;;;14.24;52.84;102635.22;5014881;28;20187;-49
2022/03/28 01:47:02;;;;;;;12.80;9.90;;;11.00;69.70;;;14.23;52.37;102639.69;5012546;28;20211;-50
2022/03/28 01:49:31;;;;;;;12.33;9.70;;;11.10;69.40;;;14.20;52.41;102639.16;5014630;28;20195;-51
2022/03/28 01:51:58;;;;;;;16.13;12.17;;;11.00;69.20;;;14.13;52.37;102632.81;5014215;28;20228;-49
2022/03/28 01:54:25;;;;;;;14.73;11.47;;;11.00;69.70;;;14.09;52.60;102631.44;5014581;28;20196;-52
2022/03/28 01:56:54;;;;;;;14.03;10.33;;;10.90;69.60;;;14.08;52.67;102621.81;5012899;28;20218;-51
2022/03/28 01:59:21;;;;;;;10.37;9.00;;;10.90;69.90;;;14.05;52.50;102624.75;5014007;28;20195;-51
2022/03/28 02:01:48;;;;;;;12.43;10.30;;;10.90;69.60;;;14.04;52.74;102617.81;5012624;28;20381;-50
2022/03/28 02:04:16;;;;;;;13.13;10.20;;;10.90;70.30;;;14.03;52.85;102616.97;5014287;28;20201;-50
2022/03/28 02:06:43;;;;;;;13.20;10.43;;;10.80;70.30;;;14.03;53.00;102608.19;5013965;28;20211;-50
2022/03/28 02:09:10;;;;;;;13.00;10.20;;;10.80;70.60;;;14.06;52.99;102605.25;5014196;28;20196;-50
2022/03/28 02:11:37;;;;;;;13.53;10.07;;;10.80;70.50;;;14.07;52.91;102601.66;5013915;28;20195;-51
2022/03/28 02:14:06;;;;;;;15.43;9.60;;;10.80;70.30;;;14.06;52.88;102599.97;5013953;28;20195;-50
2022/03/28 02:16:33;;;;;;;13.23;9.97;;;10.80;70.30;;;14.06;52.94;102597.31;5013603;28;20199;-52
2022/03/28 02:19:01;;;;;;;12.20;9.80;;;10.90;70.30;;;14.05;52.78;102587.69;5012456;28;20202;-51
2022/03/28 02:21:28;;;;;;;18.53;13.23;;;10.90;70.30;;;14.06;52.74;102600.81;5014221;28;20630;-50
2022/03/28 02:23:55;;;;;;;14.90;10.67;;;10.90;70.10;;;14.05;52.67;102588.53;5014478;28;20700;-51
2022/03/28 02:26:23;;;;;;;12.57;10.00;;;10.80;69.80;;;14.03;52.57;102592.31;5015453;28;20282;-50
2022/03/28 02:28:50;;;;;;;11.97;9.23;;;10.80;69.80;;;14.01;52.53;102592.47;5015641;28;20203;-49
2022/03/28 02:31:19;;;;;;;11.03;8.57;;;10.80;69.60;;;13.97;52.68;102579.69;5015571;28;20187;-50
2022/03/28 02:33:46;;;;;;;11.40;9.10;;;10.80;69.60;;;13.95;52.58;102581.66;5013813;28;20223;-50
2022/03/28 02:36:13;;;;;;;11.70;8.70;;;10.70;69.70;;;13.91;52.49;102569.69;5011742;28;20214;-52
2022/03/28 02:38:41;;;;;;;7.97;7.17;;;10.70;69.60;;;13.89;52.40;102571.66;5013673;28;20656;-52
2022/03/28 02:41:09;;;;;;;10.33;8.87;;;10.70;69.50;;;13.88;52.55;102575.31;5013527;28;20191;-51
2022/03/28 02:43:36;;;;;;;16.27;10.53;;;10.60;69.80;;;13.84;52.90;102573.94;5013340;28;20197;-48
2022/03/28 02:46:03;;;;;;;12.27;9.50;;;10.60;71.20;;;13.81;52.47;102574.25;5013046;28;20195;-53
2022/03/28 02:48:32;;;;;;;10.20;8.90;;;10.60;70.30;;;13.78;52.91;102580.69;5016804;28;20203;-51
2022/03/28 02:50:59;;;;;;;10.27;9.20;;;10.50;70.30;;;13.79;53.19;102582.31;5017022;28;20191;-51
2022/03/28 02:53:26;;;;;;;10.87;8.73;;;10.60;70.50;;;13.82;53.12;102575.91;5015636;28;20211;-52
2022/03/28 02:55:54;;;;;;;10.50;9.30;;;10.60;70.50;;;13.86;52.99;102569.34;5017215;28;20226;-52
2022/03/28 02:58:21;;;;;;;9.87;8.70;;;10.60;70.30;;;13.89;53.02;102567.22;5016960;28;20222;-50
2022/03/28 03:00:48;;;;;;;11.13;8.90;;;10.70;70.50;;;13.93;52.91;102567.75;5017004;28;20274;-50
2022/03/28 03:03:16;;;;;;;9.60;8.33;;;10.70;70.10;;;13.95;52.68;102565.78;5016705;28;20704;-51
2022/03/28 03:05:46;;;;;;;9.67;8.40;;;10.70;69.70;;;13.92;52.63;102574.84;5016889;28;20657;-51
2022/03/28 03:08:13;;;;;;;12.60;8.37;;;10.70;69.50;;;13.91;52.45;102575.00;5016544;28;20219;-52
2022/03/28 03:10:40;;;;;;;10.20;9.20;;;10.70;69.40;;;13.88;52.41;102570.03;5015459;28;20210;-50
2022/03/28 03:13:08;;;;;;;9.73;8.73;;;10.70;69.70;;;13.86;52.62;102572.00;5016674;28;20236;-50
2022/03/28 03:15:36;;;;;;;12.03;8.93;;;10.60;69.90;;;13.84;52.67;102568.63;5017069;28;20206;-51
2022/03/28 03:18:04;;;;;;;9.27;8.27;;;10.60;70.20;;;13.81;52.65;102568.97;5016671;28;20729;-52
2022/03/28 03:20:32;;;;;;;10.37;9.20;;;10.60;70.10;;;13.77;52.81;102567.56;5016641;28;20202;-50
2022/03/28 03:23:01;;;;;;;11.93;10.30;;;10.50;70.40;;;13.73;53.22;102566.22;5016840;28;20199;-52
2022/03/28 03:25:30;;;;;;;11.37;9.40;;;10.50;70.80;;;13.72;53.41;102553.94;5016920;28;20266;-49
2022/03/28 03:27:57;;;;;;;9.47;8.47;;;10.50;70.90;;;13.74;53.26;102552.00;5014963;28;20223;-49
2022/03/28 03:30:25;;;;;;;9.97;9.07;;;10.50;70.60;;;13.76;53.20;102552.69;5016686;28;20194;-50
2022/03/28 03:32:52;;;;;;;9.40;8.43;;;10.60;70.90;;;13.77;53.06;102546.41;5016641;28;20229;-49
2022/03/28 03:35:19;;;;;;;9.63;8.67;;;10.60;70.60;;;13.76;52.96;102544.75;5016787;28;20656;-52
2022/03/28 03:37:47;;;;;;;12.10;8.87;;;10.60;70.50;;;13.76;52.75;102550.03;5016089;28;20215;-50
2022/03/28 03:40:15;;;;;;;10.67;8.30;;;10.50;70.20;;;13.73;52.87;102545.03;5017103;28;20192;-51
2022/03/28 03:42:43;;;;;;;10.83;9.43;;;10.50;70.20;;;13.70;53.00;102537.41;5015676;28;20191;-49
2022/03/28 03:45:10;;;;;;;10.93;8.97;;;10.50;70.40;;;13.68;52.93;102542.84;4997493;28;20196;-50
2022/03/28 03:47:38;;;;;;;11.03;9.53;;;10.50;70.20;;;13.71;53.20;102539.06;4996446;28;20212;-51
2022/03/28 03:50:07;;;;;;;11.33;10.20;;;10.50;71.30;;;13.75;53.01;102543.06;4996881;28;20191;-51
2022/03/28 03:52:35;;;;;;;9.60;8.60;;;10.50;70.20;;;13.78;52.75;102542.78;4996613;28;20218;-52
2022/03/28 03:55:04;;;;;;;10.10;9.10;;;10.60;70.20;;;13.78;52.63;102538.31;4996618;28;20604;-51
2022/03/28 03:57:33;;;;;;;9.67;8.70;;;10.60;69.80;;;13.74;52.64;102542.22;4996003;28;20312;-50
2022/03/28 04:00:00;;;;;;;12.17;9.63;;;10.60;69.50;;;13.71;52.56;102541.72;5007501;28;20196;-52
2022/03/28 04:02:29;;;;;;;11.13;8.77;;;10.60;69.30;;;13.66;52.44;102534.25;5007746;28;20218;-52
2022/03/28 04:04:57;;;;;;;12.50;8.63;;;10.50;69.10;;;13.66;52.53;102528.94;5008517;28;20664;-52
2022/03/28 04:07:24;;;;;;;9.40;8.47;;;10.50;69.30;;;13.69;52.83;102533.09;5007653;28;20310;-49
2022/03/28 04:09:52;;;;;;;11.77;10.03;;;10.50;69.80;;;13.72;52.63;102527.50;5009869;28;20184;-51
2022/03/28 04:12:19;;;;;;;9.23;8.33;;;10.50;69.10;;;13.73;52.38;102523.88;5007486;28;20188;-52
2022/03/28 04:14:47;;;;;;;12.90;9.17;;;10.50;68.90;;;13.74;52.21;102533.50;5007837;28;20309;-50
2022/03/28 04:17:15;;;;;;;11.77;7.47;;;10.50;68.60;;;13.72;52.11;102528.31;5020976;28;20222;-51
2022/03/28 04:19:42;;;;;;;10.03;9.00;;;10.50;68.50;;;13.72;52.14;102522.19;5025967;28;20199;-48
2022/03/28 04:22:09;;;;;;;13.57;11.83;;;10.50;68.40;;;13.71;51.94;102525.84;5027259;28;20237;-52
2022/03/28 04:24:37;;;;;;;10.93;8.87;;;10.50;68.20;;;13.71;52.18;102517.91;5027184;28;20294;-50
2022/03/28 04:27:06;;;;;;;11.50;10.30;;;10.50;68.60;;;13.75;52.29;102519.25;5026584;28;20246;-53
2022/03/28 04:29:34;;;;;;;12.90;8.97;;;10.50;69.10;;;13.82;52.33;102512.38;5024808;28;20188;-53
2022/03/28 04:32:03;;;;;;;11.50;8.73;;;10.60;68.90;;;13.90;51.99;102515.09;5025398;28;20278;-53
2022/03/28 04:34:31;;;;;;;12.17;9.67;;;10.70;68.50;;;13.94;51.63;102511.16;5022850;28;20222;-51
2022/03/28 04:36:58;;;;;;;12.43;11.13;;;10.70;68.10;;;13.94;51.65;102513.81;5022391;28;20215;-51
2022/03/28 04:39:25;;;;;;;16.57;11.10;;;10.70;68.00;;;13.92;51.39;102510.47;5021291;28;20202;-53
2022/03/28 04:41:52;;;;;;;11.97;10.67;;;10.70;68.40;;;13.91;51.42;102511.44;5022484;28;20205;-54
2022/03/28 04:44:20;;;;;;;16.63;12.90;;;10.70;67.70;;;13.90;51.29;102507.16;5021658;28;20194;-54
2022/03/28 04:46:48;;;;;;;14.67;11.73;;;10.70;67.60;;;13.87;51.46;102500.34;5019380;28;20215;-52
2022/03/28 04:49:17;;;;;;;14.70;12.33;;;10.70;67.50;;;13.85;51.74;102507.63;5019903;28;20207;-52
2022/03/28 04:51:44;;;;;;;16.13;13.17;;;10.70;67.50;;;13.86;51.56;102497.88;5020175;28;20568;-52
2022/03/28 04:54:11;;;;;;;15.53;12.40;;;10.70;67.70;;;13.89;51.34;102492.25;5020982;28;20274;-52
2022/03/28 04:56:39;;;;;;;15.77;11.70;;;10.70;67.40;;;13.88;51.01;102498.53;5020330;28;20215;-53
2022/03/28 04:59:06;;;;;;;11.50;8.80;;;10.70;66.90;;;13.90;51.08;102499.22;5020284;28;20634;-52
2022/03/28 05:01:33;;;;;;;9.43;8.47;;;10.70;67.10;;;13.92;51.10;102486.66;5020756;28;20641;-53
2022/03/28 05:04:01;;;;;;;9.93;8.87;;;10.70;67.10;;;13.95;51.23;102492.47;5019238;28;20187;-51
2022/03/28 05:06:30;;;;;;;10.13;9.03;;;10.80;67.30;;;13.99;50.91;102498.31;5018661;28;20251;-52
2022/03/28 05:08:57;;;;;;;15.03;8.70;;;10.80;67.10;;;14.02;50.98;102498.00;5020921;28;20665;-52
2022/03/28 05:11:24;;;;;;;14.73;10.00;;;10.80;67.20;;;14.07;51.08;102491.25;5021452;28;20197;-52
2022/03/28 05:13:52;;;;;;;11.47;9.90;;;10.90;67.20;;;14.11;50.92;102489.13;5021827;28;20687;-50
2022/03/28 05:16:19;;;;;;;12.43;10.50;;;11.00;67.00;;;14.16;50.96;102490.34;5019376;28;20199;-53
2022/03/28 05:18:47;;;;;;;9.97;8.97;;;11.00;66.50;;;14.20;50.79;102485.53;5019695;28;20215;-54
2022/03/28 05:21:14;;;;;;;10.27;8.93;;;11.00;66.70;;;14.23;50.45;102485.25;5018721;28;20198;-54
2022/03/28 05:23:43;;;;;;;10.83;9.50;;;11.10;66.30;;;14.24;50.43;102492.19;5018531;28;20251;-53
2022/03/28 05:26:11;;;;;;;12.90;10.07;;;11.10;66.10;;;14.23;50.34;102487.91;5019381;28;20187;-53
2022/03/28 05:28:38;;;;;;;12.47;10.97;;;11.00;66.10;;;14.20;50.24;102483.75;5020421;28;20214;-53
2022/03/28 05:31:05;;;;;;;12.37;9.40;;;11.00;66.10;;;14.16;50.45;102478.91;5020657;28;20199;-52
2022/03/28 05:33:33;;;;;;;11.70;9.43;;;11.00;66.10;;;14.11;50.44;102474.06;5018632;28;20225;-53
2022/03/28 05:36:00;;;;;;;11.57;9.50;;;11.00;66.40;;;14.11;50.56;102473.25;5019162;28;20199;-52
2022/03/28 05:38:28;;;;;;;14.07;9.67;;;10.90;66.20;;;14.07;50.39;102477.19;5018776;28;20223;-53
2022/03/28 05:40:57;;;;;;;10.87;8.40;;;10.90;66.10;;;14.01;50.11;102481.28;5004442;28;20203;-53
2022/03/28 05:43:25;;;;;;;8.67;7.77;;;10.90;66.00;;;13.94;50.30;102479.38;5000930;28;20192;-53
2022/03/28 05:45:52;;;;;;;9.90;8.47;;;10.80;65.90;;;13.90;50.51;102475.41;4999519;28;20196;-53
2022/03/28 05:48:20;;;;;;;11.20;8.83;;;10.70;66.00;;;13.89;50.78;102476.38;4997498;28;20220;-51
2022/03/28 05:50:49;;;;;;;12.00;9.00;;;10.70;66.60;;;13.91;50.72;102472.59;4999768;28;20278;-53
2022/03/28 05:53:16;;;;;;;7.90;6.63;;;10.80;66.40;;;13.94;50.55;102469.63;5000363;28;20211;-52
2022/03/28 05:55:44;;;;;;;7.40;6.57;;;10.80;66.20;;;13.93;50.29;102472.44;5000567;28;20192;-53
2022/03/28 05:58:12;;;;;;;9.37;7.50;;;10.80;66.00;;;13.90;50.59;102468.28;4999556;28;20582;-54
2022/03/28 06:00:40;;;;;;;10.73;7.73;;;10.70;66.30;;;13.90;50.67;102467.47;5001038;28;20193;-54
2022/03/28 06:03:08;;;;;;;6.30;5.47;;;10.70;66.40;;;13.90;50.50;102483.34;5000570;28;20676;-51
2022/03/28 06:05:56;;;;;;;5.17;4.67;;;10.70;66.10;;;13.85;50.14;102480.31;4998217;28;20250;-53
2022/03/28 06:08:23;;;;;;;4.93;4.43;;;10.70;65.70;;;13.82;50.35;102480.63;5000968;28;20219;-51
2022/03/28 06:10:50;;;;;;;6.53;4.60;;;10.70;65.70;;;13.77;50.16;102481.06;5006841;28;20226;-56
2022/03/28 06:13:19;;;;;;;6.57;5.90;;;10.60;65.40;;;13.72;50.37;102477.22;5014864;28;20223;-53
2022/03/28 06:15:46;;;;;;;5.13;4.63;;;10.50;66.00;;;13.71;50.61;102471.09;5002819;28;20203;-53
2022/03/28 06:18:14;;;;;;;7.10;4.77;;;10.60;66.40;;;13.75;50.36;102474.25;5001713;28;20316;-51
2022/03/28 06:20:41;;;;;;;5.10;3.83;;;10.50;66.00;;;13.76;50.37;102475.94;5008747;28;20207;-52
2022/03/28 06:23:12;;;;;;;4.00;3.50;;;10.50;66.00;;;13.72;50.06;102469.28;5017807;28;20655;-53
2022/03/28 06:25:40;;;;;;;3.27;2.97;;;10.50;66.00;;;13.71;50.25;102475.56;5006778;28;20618;-53
2022/03/28 06:28:08;;;;;;;3.73;3.33;;;10.50;66.20;;;13.66;50.21;102464.59;5015562;28;20274;-53
2022/03/28 06:30:37;;;;;;;8.80;6.70;;;10.50;66.10;;;13.63;50.52;102470.19;5022172;28;20184;-53
2022/03/28 06:33:05;;;;;;;8.70;5.83;;;10.40;66.30;;;13.64;50.69;102471.88;5024592;28;20184;-51
2022/03/28 06:35:32;;;;;;;5.13;4.30;;;10.40;66.70;;;13.66;50.55;102465.44;5034900;28;20202;-53
2022/03/28 06:37:59;;;;;;;5.10;4.50;;;10.40;66.50;;;13.67;50.55;102458.34;5005207;28;20801;-50
2022/03/28 06:40:27;;;;;;;6.83;4.53;;;10.40;66.70;;;13.70;50.65;102455.38;5001270;28;20188;-49
2022/03/28 06:42:55;;;;;;;9.37;4.30;;;10.50;66.70;;;13.76;50.62;102450.31;4994690;28;20307;-51
2022/03/28 06:45:22;;;;;;;5.90;4.07;;;10.50;66.80;;;13.83;50.68;102455.81;4996218;28;20194;-51
2022/03/28 06:47:53;;;;;;;7.17;4.30;;;10.50;66.90;;;13.90;50.28;102448.94;5001622;28;20219;-52
2022/03/28 06:50:22;;;;;;;6.57;4.70;;;10.60;66.40;;;13.95;50.63;102449.31;5004667;28;20199;-50
2022/03/28 06:52:50;;;;;;;12.93;9.23;;;10.60;66.90;;;13.97;50.53;102449.97;4997883;28;20710;-50
2022/03/28 06:55:18;;;;;;;5.33;4.73;;;10.70;66.60;;;14.00;50.21;102444.38;4992181;28;20290;-50
2022/03/28 06:57:46;;;;;;;4.40;4.00;;;10.70;66.10;;;14.00;50.16;102444.38;4998462;28;20211;-52
2022/03/28 07:00:15;;;;;;;4.97;4.47;;;10.70;65.70;;;13.97;49.79;102442.03;5006414;28;20211;-51
2022/03/28 07:02:46;;;;;;;4.87;4.30;;;10.70;65.40;;;13.91;49.63;102448.75;5011531;28;20629;-50
2022/03/28 07:05:16;;;;;;;6.13;5.47;;;10.70;64.90;;;13.85;49.47;102443.25;5004649;28;20227;-50
2022/03/28 07:07:46;;;;;;;6.63;4.87;;;10.70;64.80;;;13.81;49.58;102442.72;4993507;28;20216;-51
2022/03/28 07:10:15;;;;;;;6.37;5.63;;;10.60;64.90;;;13.77;49.75;102440.53;5011416;28;20218;-50
2022/03/28 07:12:43;;;;;;;5.03;4.27;;;10.60;65.00;;;13.77;49.73;102436.09;5007934;28;20237;-49
2022/03/28 07:15:12;;;;;;;5.63;4.67;;;10.60;65.00;;;13.80;49.96;102427.00;4998301;28;20212;-51
2022/03/28 07:17:51;;;;;;;9.07;7.23;;;10.60;65.80;;;13.84;49.91;102431.84;5005480;28;20250;-51
2022/03/28 07:20:23;;;;;;;8.77;7.00;;;10.60;65.80;;;13.92;50.02;102428.41;4998206;28;20242;-51
2022/03/28 07:22:51;;;;;;;7.63;6.30;;;10.60;66.20;;;14.00;50.30;102420.56;4997915;28;20196;-47
2022/03/28 07:25:19;;;;;;;15.33;7.50;;;10.70;66.30;;;14.10;50.12;102418.59;4994183;28;20208;-50
2022/03/28 07:27:49;;;;;;;7.07;6.33;;;10.80;65.90;;;14.17;49.97;102419.63;4993349;28;20591;-50
2022/03/28 07:30:19;;;;;;;8.13;6.70;;;10.80;66.10;;;14.24;49.84;102428.63;4995257;28;20219;-51
2022/03/28 07:32:47;;;;;;;8.50;6.37;;;10.90;66.00;;;14.27;49.58;102425.66;5008846;28;20214;-50
2022/03/28 07:35:17;;;;;;;7.70;6.43;;;10.90;65.40;;;14.28;49.43;102414.09;5017192;28;20724;-49
2022/03/28 07:37:46;;;;;;;7.90;6.20;;;10.90;65.10;;;14.31;49.20;102413.78;5016347;28;20279;-49
2022/03/28 07:40:15;;;;;;;7.40;6.53;;;11.00;64.70;;;14.32;48.80;102407.53;5007253;28;20195;-49
2022/03/28 07:42:43;;;;;;;9.43;8.47;;;11.00;64.40;;;14.29;48.77;102415.75;5010321;28;20233;-50
2022/03/28 07:45:11;;;;;;;11.83;9.37;;;11.00;64.00;;;14.25;48.67;102407.28;5009412;28;20191;-49
2022/03/28 07:47:39;;;;;;;12.23;7.10;;;10.90;64.00;;;14.24;48.94;102402.13;5010883;28;20218;-50
2022/03/28 07:50:09;;;;;;;9.43;7.57;;;11.00;64.60;;;14.25;48.85;102398.50;5032026;28;20301;-51
2022/03/28 07:52:37;;;;;;;7.97;6.83;;;10.90;64.80;;;14.31;49.05;102397.09;5004828;28;20250;-50
2022/03/28 07:55:10;;;;;;;7.53;6.53;;;11.00;65.00;;;14.37;49.01;102392.00;5013481;28;20210;-54
2022/03/28 07:57:38;;;;;;;6.90;6.10;;;11.10;65.00;;;14.45;49.01;102389.38;5009448;28;20664;-51
2022/03/28 08:00:13;;;;;;;9.93;6.93;;;11.10;64.90;;;14.53;48.92;102381.44;5007450;28;20246;-51
2022/03/28 08:02:56;;;;;;;8.90;6.63;;;11.20;64.80;;;14.62;48.92;102383.13;5008174;28;20681;-50
2022/03/28 08:05:24;;;;;;;14.67;12.07;;;11.30;64.50;;;14.72;48.69;102380.34;5005901;28;20218;-51
2022/03/28 08:07:54;;;;;;;9.30;8.20;;;11.40;64.00;;;14.79;48.25;102387.50;5005309;28;20223;-50
2022/03/28 08:10:25;;;;;;;7.60;6.77;;;11.40;63.60;;;14.84;48.03;102379.06;5007398;28;20679;-51
2022/03/28 08:12:53;;;;;;;7.77;6.97;;;11.50;62.80;;;14.82;47.63;102381.88;5004101;28;20199;-48
2022/03/28 08:15:22;;;;;;;6.50;5.90;;;11.50;62.60;;;14.78;47.38;102383.22;5003126;28;20708;-56
2022/03/28 08:17:49;;;;;;;7.97;6.33;;;11.50;62.50;;;14.74;47.62;102373.91;4993871;28;20362;-59
2022/03/28 08:20:17;;;;;;;6.60;5.47;;;11.40;62.20;;;14.75;47.60;102375.56;4932198;28;20213;-51
2022/03/28 08:22:49;;;;;;;7.10;6.40;;;11.40;62.10;;;14.74;47.51;102379.22;4928543;28;20223;-56
2022/03/28 08:25:20;;;;;;;6.63;5.93;;;11.40;62.40;;;14.82;47.51;102376.59;4928119;28;20199;-51
2022/03/28 08:27:49;;;;;;;7.77;6.20;;;11.40;62.40;;;14.88;47.46;102373.28;4931526;28;20225;-51
2022/03/28 08:30:18;;;;;;;9.30;8.27;;;11.40;62.70;;;14.98;47.30;102377.59;4934107;28;20215;-51
2022/03/28 08:32:48;;;;;;;8.93;8.03;;;11.50;62.80;;;15.08;47.24;102370.34;4953667;28;20557;-50
2022/03/28 08:35:16;;;;;;;31.57;26.47;;;11.60;62.40;;;15.11;46.98;102373.50;4997322;28;20265;-49
2022/03/28 08:37:44;;;;;;;16.40;12.00;;;11.70;62.10;;;15.16;46.76;102367.69;4996647;28;20315;-50
2022/03/28 08:40:14;;;;;;;6.50;5.43;;;11.80;61.80;;;15.24;46.77;102362.38;4999568;28;20230;-49
2022/03/28 08:42:42;;;;;;;7.00;6.30;;;11.90;61.60;;;15.33;46.62;102358.78;4997220;28;20195;-50
2022/03/28 08:45:14;;;;;;;6.40;5.80;;;11.90;61.30;;;15.41;45.89;102364.06;4997237;28;20699;-51
2022/03/28 08:47:44;;;;;;;4.83;4.27;;;11.90;60.20;;;15.39;45.74;102363.41;4999363;28;20286;-50
2022/03/28 08:50:32;;;;;;;6.67;5.43;;;11.90;60.40;;;15.35;46.02;102362.09;4998785;28;20206;-50
2022/03/28 08:53:00;;;;;;;5.80;5.30;;;11.90;60.40;;;15.28;45.69;102367.22;4997305;28;20202;-49
2022/03/28 08:55:27;;;;;;;5.47;4.97;;;11.90;60.40;;;15.19;45.79;102367.38;4996490;28;20218;-56
2022/03/28 08:57:54;;;;;;;7.53;5.30;;;11.90;60.10;;;15.13;45.74;102368.84;4999751;28;20774;-50
2022/03/28 09:00:23;;;;;;;5.63;5.13;;;11.80;60.00;;;15.07;45.97;102358.09;5002911;28;20209;-55
2022/03/28 09:02:58;;;;;;;6.80;6.10;;;11.80;60.10;;;15.02;46.36;102360.38;5003079;28;20194;-54
2022/03/28 09:05:31;;;;;;;6.83;6.17;;;11.70;60.50;;;15.02;46.05;102357.75;5002309;28;20668;-50
2022/03/28 09:07:58;;;;;;;5.60;5.10;;;11.70;60.30;;;15.03;46.16;102356.72;5000040;28;21869;-57
2022/03/28 09:10:28;;;;;;;9.43;7.20;;;11.70;60.40;;;15.06;45.88;102362.56;4999386;28;20665;-51
2022/03/28 09:13:02;;;;;;;8.07;6.47;;;11.70;60.50;;;15.07;46.27;102355.44;5000915;28;20207;-52
2022/03/28 09:15:48;;;;;;;7.10;6.50;;;11.70;61.00;;;15.13;46.01;102362.72;4999816;28;20246;-50
2022/03/28 09:18:21;;;;;;;6.40;5.87;;;11.70;60.70;;;15.22;46.04;102356.41;4998844;28;20284;-53
2022/03/28 09:20:50;;;;;;;5.67;5.17;;;11.80;60.70;;;15.29;45.90;102352.09;5002894;28;20610;-49
2022/03/28 09:23:45;;;;;;;6.67;5.90;;;11.80;60.60;;;15.33;45.97;102353.47;4998237;28;20213;-53
2022/03/28 09:26:18;;;;;;;5.90;5.30;;;11.90;61.00;;;15.46;45.66;102345.84;4954233;28;20242;-50
2022/03/28 09:28:50;;;;;;;6.80;5.70;;;12.00;60.80;;;15.55;45.78;102342.19;4996733;28;20206;-49
2022/03/28 09:31:26;;;;;;;6.67;5.43;;;12.10;60.30;;;15.62;45.54;102343.16;5002533;28;20305;-49
2022/03/28 09:34:06;;;;;;;7.80;5.60;;;12.10;59.80;;;15.64;45.54;102338.56;4997570;28;20614;-50
2022/03/28 09:36:37;;;;;;;8.93;8.07;;;12.20;59.80;;;15.68;45.26;102339.88;5000249;28;20305;-53
2022/03/28 09:39:07;;;;;;;7.67;6.87;;;12.20;59.60;;;15.75;45.13;102346.16;4996742;28;20293;-51
2022/03/28 09:41:35;;;;;;;6.03;5.53;;;12.30;59.80;;;15.78;44.93;102343.16;5000864;28;20633;-49
2022/03/28 09:44:03;;;;;;;7.67;6.97;;;12.30;59.50;;;15.79;44.83;102334.19;4997825;28;20264;-50
2022/03/28 09:46:34;;;;;;;8.23;7.40;;;12.30;59.30;;;15.83;44.96;102327.53;4999025;28;20203;-49
2022/03/28 09:49:02;;;;;;;7.17;6.47;;;12.40;59.50;;;15.90;44.89;102325.84;5001018;28;20226;-54
2022/03/28 09:51:32;;;;;;;6.40;5.73;;;12.40;59.30;;;15.96;44.65;102319.88;5000120;28;20695;-51
2022/03/28 09:54:01;;;;;;;6.80;6.10;;;12.40;59.10;;;16.01;44.21;102316.72;4997647;28;20278;-58
2022/03/28 09:56:28;;;;;;;6.87;6.07;;;12.50;59.00;;;16.07;44.28;102321.31;4996411;28;20237;-51
2022/03/28 09:59:00;;;;;;;7.30;6.33;;;12.50;59.10;;;16.10;44.16;102316.50;4994265;28;20279;-55
2022/03/28 10:01:35;;;;;;;6.90;6.30;;;12.50;59.10;;;16.14;44.31;102307.19;4996551;28;20209;-53
2022/03/28 10:04:07;;;;;;;6.30;5.70;;;12.50;59.10;;;16.18;44.18;102305.88;4997831;28;20387;-53
2022/03/28 10:06:38;;;;;;;7.67;6.33;;;12.60;59.00;;;16.26;44.38;102304.97;4995264;28;20699;-52
2022/03/28 10:09:07;;;;;;;8.63;7.90;;;12.60;58.70;;;16.34;43.82;102299.63;4997589;28;20216;-50
2022/03/28 10:11:39;;;;;;;8.17;7.37;;;12.70;58.90;;;16.43;43.84;102290.63;4997085;28;20263;-48
2022/03/28 10:14:06;;;;;;;7.03;6.43;;;12.80;58.70;;;16.47;43.41;102285.78;5000877;28;20202;-57
2022/03/28 10:16:37;;;;;;;7.10;6.40;;;12.90;58.30;;;16.52;43.44;102288.78;4995021;28;20674;-52